Time;durP1;ratioP1;P1;durP2;ratioP2;P2;SDS_P1;SDS_P2;PMS_P1;PMS_P2;Temp;Humidity;BMP_temperature;BMP_pressure;BME280_temperature;BME280_humidity;BME280_pressure;Samples;Min_cycle;Max_cycle;Signal;HPM_P1;HPM_P2
2021/10/26 00:01:20;;;;;;;7.57;5.53;;;15.30;73.60;;;;;;4805993;29;20087;-83
2021/10/26 00:03:47;;;;;;;9.48;6.05;;;15.20;73.60;;;;;;4821220;29;20103;-83
2021/10/26 00:06:13;;;;;;;7.35;5.65;;;15.20;73.60;;;;;;4806017;29;20038;-82
2021/10/26 00:08:39;;;;;;;7.40;5.90;;;15.30;73.60;;;;;;4822398;29;20122;-83
2021/10/26 00:11:06;;;;;;;7.47;6.20;;;15.20;73.60;;;;;;4821157;29;20026;-83
2021/10/26 00:13:32;;;;;;;8.80;5.93;;;15.30;73.60;;;;;;4819382;29;20506;-82
2021/10/26 00:15:59;;;;;;;7.47;5.82;;;15.30;73.60;;;;;;4798329;29;20038;-82
2021/10/26 00:18:25;;;;;;;8.85;6.55;;;15.20;73.60;;;;;;4821873;29;20037;-82
2021/10/26 00:20:57;;;;;;;9.10;6.18;;;15.30;73.60;;;;;;4817375;29;20058;-83
2021/10/26 00:23:23;;;;;;;7.47;6.15;;;15.30;73.70;;;;;;4803129;29;20030;-82
2021/10/26 00:25:49;;;;;;;7.43;5.75;;;15.20;73.60;;;;;;4803204;29;20084;-83
2021/10/26 00:28:18;;;;;;;6.60;5.22;;;15.30;73.70;;;;;;4802905;29;20035;-82
2021/10/26 00:30:44;;;;;;;7.63;5.85;;;15.20;73.60;;;;;;4816770;29;20046;-83
2021/10/26 00:33:11;;;;;;;7.03;5.65;;;15.20;73.60;;;;;;4803607;29;20107;-83
2021/10/26 00:35:37;;;;;;;7.68;5.60;;;15.20;73.60;;;;;;4802334;29;20031;-83
2021/10/26 00:38:03;;;;;;;6.90;5.80;;;15.20;73.60;;;;;;4787677;29;20476;-83
2021/10/26 00:40:30;;;;;;;8.15;5.90;;;15.20;73.60;;;;;;4817970;29;20407;-83
2021/10/26 00:42:56;;;;;;;7.35;5.68;;;15.20;73.70;;;;;;4817776;29;20054;-82
2021/10/26 00:45:22;;;;;;;6.97;5.57;;;15.20;73.60;;;;;;4799601;29;20036;-83
2021/10/26 00:47:49;;;;;;;8.07;6.35;;;15.20;73.60;;;;;;4801573;29;20042;-82
2021/10/26 00:50:15;;;;;;;7.97;5.95;;;15.20;73.60;;;;;;4800894;29;20453;-83
2021/10/26 00:52:46;;;;;;;7.53;5.97;;;15.20;73.70;;;;;;4802494;29;20123;-83
2021/10/26 00:55:12;;;;;;;7.80;6.53;;;15.30;73.70;;;;;;4802509;29;20046;-83
2021/10/26 00:57:40;;;;;;;7.13;5.93;;;15.20;73.60;;;;;;4802520;29;20054;-82
2021/10/26 01:00:11;;;;;;;8.10;6.30;;;15.20;73.70;;;;;;4795620;29;20100;-83
2021/10/26 01:02:42;;;;;;;8.88;6.43;;;15.20;73.70;;;;;;4802138;29;20064;-82
2021/10/26 01:05:10;;;;;;;8.15;6.50;;;15.20;73.70;;;;;;4802283;29;20047;-83
2021/10/26 01:07:37;;;;;;;7.78;5.95;;;15.30;73.70;;;;;;4802051;29;20035;-82
2021/10/26 01:10:07;;;;;;;7.82;6.22;;;15.20;73.70;;;;;;4816961;29;20045;-83
2021/10/26 01:12:35;;;;;;;6.93;5.57;;;15.30;73.70;;;;;;4809036;29;20027;-83
2021/10/26 01:15:01;;;;;;;8.57;6.55;;;15.30;73.70;;;;;;4802587;29;20051;-83
2021/10/26 01:17:29;;;;;;;8.60;6.10;;;15.20;73.70;;;;;;4802183;29;20461;-82
2021/10/26 01:19:56;;;;;;;7.43;5.85;;;15.20;73.70;;;;;;4814330;29;20032;-83
2021/10/26 01:22:26;;;;;;;9.23;6.32;;;15.20;73.70;;;;;;4800336;29;20070;-83
2021/10/26 01:24:53;;;;;;;7.72;6.07;;;15.20;73.70;;;;;;4802208;29;20741;-82
2021/10/26 01:27:22;;;;;;;7.88;6.22;;;15.20;73.70;;;;;;4819276;29;20289;-83
2021/10/26 01:29:52;;;;;;;7.97;6.53;;;15.20;73.70;;;;;;4820625;29;20377;-83
2021/10/26 01:32:18;;;;;;;7.65;6.30;;;15.20;73.70;;;;;;4810627;29;20039;-83
2021/10/26 01:34:50;;;;;;;9.07;7.05;;;15.20;73.70;;;;;;4804892;29;20047;-82
2021/10/26 01:37:17;;;;;;;8.88;6.78;;;15.20;73.70;;;;;;4776575;29;20038;-84
2021/10/26 01:39:44;;;;;;;8.75;6.93;;;15.20;73.70;;;;;;4820115;29;20035;-82
2021/10/26 01:42:11;;;;;;;7.93;5.63;;;15.20;73.70;;;;;;4806496;29;20035;-83
2021/10/26 01:44:40;;;;;;;9.32;6.72;;;15.30;73.80;;;;;;4791097;29;20038;-81
2021/10/26 01:47:20;;;;;;;7.60;6.60;;;15.20;73.80;;;;;;4779879;29;20045;-83
2021/10/26 01:49:46;;;;;;;8.20;6.90;;;15.20;73.80;;;;;;4805894;29;20042;-82
2021/10/26 01:52:12;;;;;;;8.63;6.93;;;15.20;73.80;;;;;;4791314;29;20031;-83
2021/10/26 01:54:38;;;;;;;8.57;7.10;;;15.20;73.80;;;;;;4820531;29;20122;-82
2021/10/26 01:57:06;;;;;;;8.93;7.28;;;15.20;73.80;;;;;;4790765;29;20047;-84
2021/10/26 01:59:43;;;;;;;8.38;6.63;;;15.20;73.80;;;;;;4791647;29;20075;-81
2021/10/26 02:02:10;;;;;;;8.27;6.72;;;15.20;73.70;;;;;;4790876;29;20664;-83
2021/10/26 02:04:36;;;;;;;8.80;6.63;;;15.20;73.80;;;;;;4816217;29;20034;-83
2021/10/26 02:07:03;;;;;;;9.13;6.30;;;15.20;73.80;;;;;;4816913;29;20520;-83
2021/10/26 02:09:31;;;;;;;9.80;7.55;;;15.30;73.90;;;;;;4817197;29;20027;-83
2021/10/26 02:11:59;;;;;;;9.90;8.00;;;15.20;73.80;;;;;;4819824;29;20767;-83
2021/10/26 02:14:25;;;;;;;8.60;7.30;;;15.20;73.80;;;;;;4804004;29;20180;-83
2021/10/26 02:16:52;;;;;;;9.30;7.57;;;15.20;73.80;;;;;;4804514;29;20046;-83
2021/10/26 02:19:18;;;;;;;9.32;7.65;;;15.20;73.80;;;;;;4789604;29;20035;-83
2021/10/26 02:21:46;;;;;;;9.23;7.60;;;15.20;73.80;;;;;;4790825;29;20115;-83
2021/10/26 02:24:12;;;;;;;10.18;7.68;;;15.20;73.80;;;;;;4801108;29;20043;-82
2021/10/26 02:26:40;;;;;;;8.90;6.63;;;15.20;73.80;;;;;;4819785;29;20034;-83
2021/10/26 02:29:07;;;;;;;9.13;7.63;;;15.20;73.80;;;;;;4799420;29;20584;-83
2021/10/26 02:31:35;;;;;;;9.48;7.38;;;15.20;74.50;;;;;;4819835;29;20035;-83
2021/10/26 02:34:01;;;;;;;8.77;7.53;;;15.30;73.90;;;;;;4788587;29;20172;-83
2021/10/26 02:36:27;;;;;;;10.10;7.85;;;15.20;73.80;;;;;;4819474;29;20663;-83
2021/10/26 02:38:53;;;;;;;9.52;7.55;;;15.20;73.80;;;;;;4788153;29;20437;-83
2021/10/26 02:41:19;;;;;;;9.13;7.90;;;15.20;73.80;;;;;;4804971;29;20038;-83
2021/10/26 02:43:46;;;;;;;10.90;8.10;;;15.20;73.80;;;;;;4819924;29;20499;-83
2021/10/26 02:46:12;;;;;;;8.10;7.10;;;15.20;73.80;;;;;;4803278;29;20031;-83
2021/10/26 02:48:42;;;;;;;10.02;8.23;;;15.20;73.80;;;;;;4804165;29;20511;-82
2021/10/26 02:51:09;;;;;;;9.38;7.28;;;15.20;73.90;;;;;;4819309;29;20057;-83
2021/10/26 02:53:35;;;;;;;8.95;7.22;;;15.20;73.90;;;;;;4804204;29;20074;-83
2021/10/26 02:56:01;;;;;;;9.20;7.43;;;15.20;73.90;;;;;;4803861;29;20054;-82
2021/10/26 02:58:27;;;;;;;9.85;8.05;;;15.20;73.80;;;;;;4789521;29;20046;-83
2021/10/26 03:00:53;;;;;;;8.13;7.15;;;15.20;73.80;;;;;;4785934;29;20138;-82
2021/10/26 03:03:21;;;;;;;9.60;7.50;;;15.20;73.90;;;;;;4782778;29;20045;-83
2021/10/26 03:05:48;;;;;;;9.63;7.85;;;15.20;73.90;;;;;;4774935;29;20034;-83
2021/10/26 03:08:15;;;;;;;9.55;7.85;;;15.20;73.90;;;;;;4804886;29;20034;-84
2021/10/26 03:10:42;;;;;;;8.77;7.65;;;15.20;73.90;;;;;;4775210;29;20647;-82
2021/10/26 03:13:10;;;;;;;11.40;8.63;;;15.20;73.90;;;;;;4802251;29;20337;-83
2021/10/26 03:15:36;;;;;;;10.15;8.18;;;15.20;73.90;;;;;;4788827;29;20879;-83
2021/10/26 03:18:09;;;;;;;9.07;7.75;;;15.20;73.90;;;;;;4817824;29;20038;-83
2021/10/26 03:20:38;;;;;;;8.98;7.55;;;15.20;73.90;;;;;;4805498;29;20066;-83
2021/10/26 03:23:05;;;;;;;9.20;7.20;;;15.20;73.90;;;;;;4819175;29;20095;-83
2021/10/26 03:25:31;;;;;;;10.18;8.23;;;15.20;73.90;;;;;;4818797;29;20392;-81
2021/10/26 03:27:58;;;;;;;9.68;7.95;;;15.20;73.90;;;;;;4818737;29;20042;-83
2021/10/26 03:30:25;;;;;;;9.55;7.88;;;15.20;73.90;;;;;;4818519;29;20034;-83
2021/10/26 03:33:00;;;;;;;9.80;7.97;;;15.20;73.90;;;;;;4803478;29;20043;-83
2021/10/26 03:35:36;;;;;;;11.68;8.20;;;15.20;74.50;;;;;;4786065;29;20125;-83
2021/10/26 03:38:03;;;;;;;9.05;7.78;;;15.20;73.90;;;;;;4818256;29;20031;-84
2021/10/26 03:40:29;;;;;;;10.80;8.70;;;15.20;73.90;;;;;;4804851;29;20031;-83
2021/10/26 03:42:57;;;;;;;9.48;7.97;;;15.20;73.90;;;;;;4783586;29;20450;-83
2021/10/26 03:45:23;;;;;;;9.60;7.88;;;15.20;73.90;;;;;;4803653;29;20035;-84
2021/10/26 03:47:49;;;;;;;9.82;8.60;;;15.20;73.90;;;;;;4803324;29;20035;-84
2021/10/26 03:50:16;;;;;;;10.25;8.70;;;15.20;73.90;;;;;;4780657;29;20145;-83
2021/10/26 03:52:42;;;;;;;10.30;8.65;;;15.20;73.90;;;;;;4785449;29;20408;-83
2021/10/26 03:55:09;;;;;;;11.32;8.70;;;15.20;74.00;;;;;;4785034;30;20058;-83
2021/10/26 03:57:38;;;;;;;10.93;8.98;;;15.20;74.00;;;;;;4798028;29;20102;-83
2021/10/26 04:00:05;;;;;;;10.35;8.63;;;15.20;74.00;;;;;;4817467;29;20038;-82
2021/10/26 04:02:41;;;;;;;10.55;8.57;;;15.20;74.00;;;;;;4801853;29;20035;-83
2021/10/26 04:05:25;;;;;;;10.70;9.45;;;15.20;74.00;;;;;;4800620;29;20129;-83
2021/10/26 04:08:01;;;;;;;11.07;9.25;;;15.20;74.00;;;;;;4803153;29;20063;-83
2021/10/26 04:10:43;;;;;;;11.48;9.48;;;15.20;74.00;;;;;;4796338;29;20039;-84
2021/10/26 04:13:08;;;;;;;11.88;9.25;;;15.20;74.00;;;;;;4801718;29;20042;-83
2021/10/26 04:15:34;;;;;;;10.95;9.13;;;15.20;74.00;;;;;;4804419;29;20043;-83
2021/10/26 04:18:00;;;;;;;11.68;9.57;;;15.20;74.00;;;;;;4802894;29;20053;-84
2021/10/26 04:20:26;;;;;;;11.45;9.95;;;15.20;74.00;;;;;;4801964;29;20059;-83
2021/10/26 04:22:52;;;;;;;11.82;9.63;;;15.20;74.00;;;;;;4788711;29;20039;-83
2021/10/26 04:25:18;;;;;;;12.13;10.00;;;15.20;74.10;;;;;;4773077;29;20097;-84
2021/10/26 04:27:44;;;;;;;12.05;10.23;;;15.20;74.10;;;;;;4788778;29;20035;-85
2021/10/26 04:30:10;;;;;;;11.27;9.57;;;15.20;74.10;;;;;;4802759;29;20472;-83
2021/10/26 04:32:36;;;;;;;11.77;9.77;;;15.20;74.00;;;;;;4802830;29;20034;-83
2021/10/26 04:35:08;;;;;;;11.73;9.57;;;15.20;74.10;;;;;;4799916;29;20034;-84
2021/10/26 04:37:35;;;;;;;12.25;9.45;;;15.20;74.10;;;;;;4781035;30;20043;-84
2021/10/26 04:40:02;;;;;;;12.02;10.35;;;15.20;74.10;;;;;;4811544;29;20042;-83
2021/10/26 04:42:30;;;;;;;13.80;10.30;;;15.10;74.00;;;;;;4802801;29;20035;-83
2021/10/26 04:44:57;;;;;;;10.88;9.43;;;15.10;74.00;;;;;;4786975;29;20118;-81
2021/10/26 04:47:25;;;;;;;11.68;9.63;;;15.20;74.10;;;;;;4782274;30;20081;-82
2021/10/26 04:49:51;;;;;;;11.13;9.10;;;15.10;74.00;;;;;;4800554;29;20062;-82
2021/10/26 04:52:17;;;;;;;12.00;9.82;;;15.10;74.00;;;;;;4801185;29;20039;-83
2021/10/26 04:54:44;;;;;;;11.88;9.32;;;15.10;74.00;;;;;;4769468;29;20035;-82
2021/10/26 04:57:10;;;;;;;11.35;9.73;;;15.20;74.10;;;;;;4802023;29;20515;-82
2021/10/26 04:59:37;;;;;;;11.82;9.82;;;15.10;74.10;;;;;;4817989;29;20396;-82
2021/10/26 05:02:03;;;;;;;14.25;10.00;;;15.20;74.10;;;;;;4817215;29;20039;-83
2021/10/26 05:04:33;;;;;;;10.73;9.07;;;15.20;74.10;;;;;;4791649;29;20031;-83
2021/10/26 05:06:59;;;;;;;11.13;9.43;;;15.10;74.00;;;;;;4819402;29;20046;-83
2021/10/26 05:09:25;;;;;;;12.32;9.38;;;15.10;74.10;;;;;;4807243;29;20544;-82
2021/10/26 05:11:51;;;;;;;11.10;9.20;;;15.10;74.10;;;;;;4796099;29;20043;-82
2021/10/26 05:14:17;;;;;;;12.43;10.00;;;15.10;74.10;;;;;;4819389;29;20054;-80
2021/10/26 05:16:58;;;;;;;11.85;9.00;;;15.10;74.10;;;;;;4792283;29;20043;-84
2021/10/26 05:19:44;;;;;;;12.68;9.25;;;15.10;74.10;;;;;;4804444;29;20130;-82
2021/10/26 05:22:33;;;;;;;11.63;9.48;;;15.10;74.10;;;;;;4799454;29;20051;-80
2021/10/26 05:25:31;;;;;;;10.60;8.30;;;15.10;74.10;;;;;;4789177;29;20047;-81
2021/10/26 05:28:13;;;;;;;11.73;9.43;;;15.10;74.10;;;;;;4801303;29;20122;-81
2021/10/26 05:30:39;;;;;;;13.95;9.88;;;15.10;74.10;;;;;;4805366;29;20027;-80
2021/10/26 05:33:05;;;;;;;12.57;10.10;;;15.10;74.20;;;;;;4812800;29;20388;-81
2021/10/26 05:35:31;;;;;;;12.10;10.10;;;15.10;74.20;;;;;;4819766;29;20480;-82
2021/10/26 05:37:58;;;;;;;11.13;9.48;;;15.10;74.20;;;;;;4819622;29;20072;-80
2021/10/26 05:40:24;;;;;;;12.27;10.10;;;15.00;74.10;;;;;;4788814;29;20042;-81
2021/10/26 05:42:50;;;;;;;11.88;9.75;;;15.10;74.20;;;;;;4805417;29;20027;-81
2021/10/26 05:45:18;;;;;;;11.63;9.57;;;15.10;74.20;;;;;;4805558;29;20111;-80
2021/10/26 05:47:45;;;;;;;11.98;9.43;;;15.10;74.20;;;;;;4806334;29;20493;-80
2021/10/26 05:50:12;;;;;;;13.00;10.10;;;15.10;74.20;;;;;;4819800;29;20087;-81
2021/10/26 05:52:38;;;;;;;13.27;10.27;;;15.00;74.10;;;;;;4785171;30;20115;-81
2021/10/26 05:55:04;;;;;;;12.27;9.75;;;15.00;74.10;;;;;;4804010;29;20043;-81
2021/10/26 05:57:32;;;;;;;13.98;10.30;;;15.10;74.20;;;;;;4790258;29;20084;-81
2021/10/26 05:59:58;;;;;;;12.80;10.07;;;15.10;74.20;;;;;;4804950;29;20042;-81
2021/10/26 06:02:24;;;;;;;12.27;10.25;;;15.10;74.20;;;;;;4790337;29;20074;-81
2021/10/26 06:04:51;;;;;;;11.95;9.80;;;15.10;74.20;;;;;;4819978;29;20046;-80
2021/10/26 06:07:17;;;;;;;11.88;9.65;;;15.00;74.10;;;;;;4820097;29;20499;-80
2021/10/26 06:09:43;;;;;;;12.25;9.38;;;15.10;74.20;;;;;;4819871;29;20071;-80
2021/10/26 06:12:16;;;;;;;12.93;9.82;;;15.10;74.20;;;;;;4819930;29;20079;-80
2021/10/26 06:14:44;;;;;;;12.45;9.98;;;15.10;74.20;;;;;;4809323;29;20081;-81
2021/10/26 06:17:10;;;;;;;12.65;10.02;;;15.10;74.20;;;;;;4798943;29;20077;-81
2021/10/26 06:19:36;;;;;;;13.85;9.85;;;15.10;74.20;;;;;;4804523;29;20043;-80
2021/10/26 06:22:02;;;;;;;11.73;9.63;;;15.00;74.10;;;;;;4820096;29;20425;-81
2021/10/26 06:24:29;;;;;;;12.32;10.10;;;15.00;74.10;;;;;;4819830;29;20453;-81
2021/10/26 06:26:55;;;;;;;13.32;10.60;;;15.00;74.10;;;;;;4802321;29;20032;-80
2021/10/26 06:34:45;;;;;;;12.23;9.68;;;15.00;74.10;;;;;;4924743;23;20454;-80
2021/10/26 06:37:12;;;;;;;12.48;9.77;;;15.00;74.10;;;;;;4825507;29;20037;-80
2021/10/26 06:39:38;;;;;;;12.27;9.93;;;15.00;74.10;;;;;;4811157;29;20038;-80
2021/10/26 06:42:04;;;;;;;12.13;9.50;;;15.00;74.20;;;;;;4811112;29;20129;-80
2021/10/26 06:44:48;;;;;;;13.43;9.95;;;15.00;74.20;;;;;;4828002;29;20045;-80
2021/10/26 06:47:32;;;;;;;14.43;10.18;;;15.00;74.10;;;;;;4843095;29;20041;-81
2021/10/26 06:50:17;;;;;;;12.77;10.02;;;15.00;74.10;;;;;;4814419;29;20061;-82
2021/10/26 06:53:22;;;;;;;13.15;9.82;;;15.00;74.10;;;;;;4765189;30;20458;-81
2021/10/26 06:56:14;;;;;;;13.43;10.13;;;15.00;74.10;;;;;;4735523;30;20090;-82
2021/10/26 06:59:09;;;;;;;12.95;9.82;;;15.00;74.20;;;;;;4788893;29;20051;-81
2021/10/26 07:02:10;;;;;;;11.60;9.13;;;14.90;74.10;;;;;;4793108;29;20035;-82
2021/10/26 07:05:07;;;;;;;12.02;9.80;;;15.00;74.20;;;;;;4822989;29;20491;-82
2021/10/26 07:08:00;;;;;;;12.05;9.85;;;15.00;74.20;;;;;;4806736;29;20506;-81
2021/10/26 07:10:26;;;;;;;13.20;10.52;;;14.90;74.20;;;;;;4824230;29;20030;-82
2021/10/26 07:12:59;;;;;;;12.65;10.20;;;14.90;74.20;;;;;;4825859;29;20113;-81
2021/10/26 07:15:28;;;;;;;13.02;9.93;;;14.90;74.20;;;;;;4808822;29;20057;-82
2021/10/26 07:17:54;;;;;;;13.00;10.45;;;14.90;74.20;;;;;;4791144;29;20042;-81
2021/10/26 07:20:20;;;;;;;11.43;9.82;;;15.00;74.20;;;;;;4810944;29;20034;-82
2021/10/26 07:23:05;;;;;;;15.70;10.68;;;14.90;74.20;;;;;;4826997;29;20117;-82
2021/10/26 07:25:49;;;;;;;12.13;9.53;;;15.00;74.20;;;;;;4828775;29;20049;-82
2021/10/26 07:28:15;;;;;;;12.57;9.38;;;15.00;74.20;;;;;;4811501;29;20506;-82
2021/10/26 07:30:44;;;;;;;12.80;10.15;;;15.00;74.20;;;;;;4794772;29;20030;-81
2021/10/26 07:33:24;;;;;;;13.05;9.93;;;14.90;74.20;;;;;;4825551;29;20069;-82
2021/10/26 07:35:53;;;;;;;12.82;9.80;;;15.00;74.30;;;;;;4810328;29;20243;-82
2021/10/26 07:38:30;;;;;;;14.05;10.35;;;14.90;74.10;;;;;;4825590;29;20042;-82
2021/10/26 07:41:00;;;;;;;11.60;9.35;;;14.90;74.20;;;;;;4796791;29;20030;-82
2021/10/26 07:43:55;;;;;;;12.43;9.65;;;14.90;74.20;;;;;;4806480;29;20043;-82
2021/10/26 07:46:40;;;;;;;13.27;9.63;;;15.00;74.20;;;;;;4812440;29;20058;-81
2021/10/26 07:49:07;;;;;;;13.40;10.40;;;14.90;74.10;;;;;;4809517;29;20038;-82
2021/10/26 07:51:34;;;;;;;13.15;9.88;;;15.00;74.20;;;;;;4839605;29;20033;-81
2021/10/26 07:54:00;;;;;;;14.32;11.25;;;15.00;74.30;;;;;;4793982;29;20034;-83
2021/10/26 07:56:26;;;;;;;12.75;10.38;;;15.00;74.20;;;;;;4810559;29;20038;-81
2021/10/26 07:58:52;;;;;;;13.75;11.20;;;14.90;74.20;;;;;;4809545;29;20128;-81
2021/10/26 08:01:17;;;;;;;14.05;10.43;;;15.00;74.20;;;;;;4817298;29;20498;-82
2021/10/26 08:04:02;;;;;;;12.80;9.68;;;15.00;74.20;;;;;;4837258;29;20041;-81
2021/10/26 08:06:27;;;;;;;13.52;10.13;;;15.00;74.20;;;;;;4803705;29;20035;-81
2021/10/26 08:08:54;;;;;;;14.63;10.45;;;15.00;74.20;;;;;;4838297;29;20094;-83
2021/10/26 08:11:20;;;;;;;13.63;9.43;;;15.00;74.20;;;;;;4825207;29;20439;-82
2021/10/26 08:13:50;;;;;;;13.25;10.10;;;15.00;74.20;;;;;;4809854;29;20154;-82
2021/10/26 08:16:18;;;;;;;12.15;9.38;;;15.00;74.20;;;;;;4824705;29;20396;-82
2021/10/26 08:18:45;;;;;;;13.88;10.20;;;15.00;74.20;;;;;;4824757;29;20030;-81
2021/10/26 08:21:13;;;;;;;12.07;9.35;;;15.00;74.20;;;;;;4824920;29;20038;-81
2021/10/26 08:23:42;;;;;;;12.00;9.40;;;15.00;74.20;;;;;;4824744;29;20030;-82
2021/10/26 08:26:17;;;;;;;12.80;9.52;;;15.00;74.20;;;;;;4824923;29;20029;-82
2021/10/26 08:28:46;;;;;;;11.50;9.35;;;15.00;74.20;;;;;;4817098;29;20038;-82
2021/10/26 08:31:26;;;;;;;14.40;10.27;;;15.00;74.20;;;;;;4824520;29;20090;-82
2021/10/26 08:34:14;;;;;;;12.48;9.50;;;15.00;74.20;;;;;;4811590;29;20065;-82
2021/10/26 08:36:40;;;;;;;12.52;9.45;;;15.00;74.10;;;;;;4825811;29;20061;-81
2021/10/26 08:39:07;;;;;;;11.93;9.07;;;15.00;74.10;;;;;;4824430;29;20051;-82
2021/10/26 08:41:43;;;;;;;12.27;9.18;;;15.00;74.10;;;;;;4824360;29;20061;-82
2021/10/26 08:44:10;;;;;;;12.55;9.15;;;15.00;74.20;;;;;;4817868;29;20042;-82
2021/10/26 08:46:37;;;;;;;12.18;9.25;;;15.10;74.20;;;;;;4824005;29;20447;-82
2021/10/26 08:49:03;;;;;;;12.00;8.98;;;15.10;74.20;;;;;;4801215;29;20124;-81
2021/10/26 08:51:52;;;;;;;11.13;8.88;;;15.10;74.80;;;;;;4832698;29;20069;-82
2021/10/26 08:54:20;;;;;;;11.73;9.00;;;15.10;74.10;;;;;;4808230;29;20054;-82
2021/10/26 08:57:05;;;;;;;12.80;9.07;;;15.10;74.10;;;;;;4801576;29;20056;-82
2021/10/26 09:00:08;;;;;;;12.60;9.23;;;15.10;74.10;;;;;;4810533;29;20627;-82
2021/10/26 09:02:39;;;;;;;11.05;8.25;;;15.10;74.00;;;;;;4823893;29;20046;-82
2021/10/26 09:05:31;;;;;;;10.45;8.60;;;15.10;74.10;;;;;;4840612;29;20608;-82
2021/10/26 09:08:08;;;;;;;12.65;9.23;;;15.10;74.30;;;;;;4806523;29;20136;-82
2021/10/26 09:10:36;;;;;;;12.10;8.98;;;15.20;74.10;;;;;;4816629;29;20174;-82
2021/10/26 09:16:56;;;;;;;12.38;9.15;;;15.10;74.00;;;;;;4835377;29;20052;-82
2021/10/26 09:19:42;;;;;;;10.02;8.07;;;15.10;74.10;;;;;;4836311;29;20045;-82
2021/10/26 09:22:15;;;;;;;11.57;8.43;;;15.20;74.00;;;;;;4824745;29;20034;-81
2021/10/26 09:25:04;;;;;;;11.88;8.18;;;15.20;74.10;;;;;;4809474;29;20046;-82
2021/10/26 09:27:30;;;;;;;11.40;8.50;;;15.20;74.30;;;;;;4839794;29;20042;-84
2021/10/26 09:30:18;;;;;;;11.55;8.48;;;15.20;74.00;;;;;;4808410;29;20034;-82
2021/10/26 09:32:49;;;;;;;12.32;8.77;;;15.20;74.20;;;;;;4833239;29;20045;-82
2021/10/26 09:35:18;;;;;;;11.90;9.15;;;15.20;74.00;;;;;;4808544;29;20510;-82
2021/10/26 09:37:48;;;;;;;11.98;8.75;;;15.30;74.10;;;;;;4823933;29;20402;-82
2021/10/26 09:40:14;;;;;;;11.18;8.35;;;15.30;74.10;;;;;;4823726;29;20038;-82
2021/10/26 09:42:43;;;;;;;11.80;8.93;;;15.30;74.00;;;;;;4824060;29;20042;-82
2021/10/26 09:45:11;;;;;;;11.40;8.32;;;15.30;74.00;;;;;;4816962;29;20042;-79
2021/10/26 09:47:38;;;;;;;12.65;8.88;;;15.30;74.00;;;;;;4839193;29;20045;-82
2021/10/26 09:50:08;;;;;;;11.38;8.70;;;15.30;74.00;;;;;;4810558;29;20129;-78
2021/10/26 09:52:39;;;;;;;11.13;8.52;;;15.40;74.00;;;;;;4819175;29;20087;-82
2021/10/26 09:55:22;;;;;;;11.55;8.82;;;15.40;74.00;;;;;;4842384;29;20073;-81
2021/10/26 09:57:54;;;;;;;11.38;8.40;;;15.40;74.00;;;;;;4843924;29;20038;-82
2021/10/26 10:00:29;;;;;;;10.75;8.05;;;15.40;73.90;;;;;;4843116;29;20117;-79
2021/10/26 10:03:08;;;;;;;12.52;8.60;;;15.40;74.00;;;;;;4819322;29;20069;-80
2021/10/26 10:05:38;;;;;;;10.55;7.78;;;15.50;74.00;;;;;;4811424;29;20053;-79
2021/10/26 10:08:18;;;;;;;11.70;8.32;;;15.50;73.90;;;;;;4811604;29;20458;-80
2021/10/26 10:10:44;;;;;;;10.63;7.85;;;15.50;74.00;;;;;;4826245;29;20030;-80
2021/10/26 10:13:10;;;;;;;10.40;7.88;;;15.50;73.80;;;;;;4840301;29;20041;-80
2021/10/26 10:15:37;;;;;;;9.55;7.63;;;15.50;73.80;;;;;;4826809;29;20042;-79
2021/10/26 10:18:04;;;;;;;9.93;7.57;;;15.60;73.90;;;;;;4826339;29;20038;-79
2021/10/26 10:20:30;;;;;;;9.98;7.97;;;15.60;73.80;;;;;;4842776;29;20038;-78
2021/10/26 10:22:57;;;;;;;10.20;7.32;;;15.60;73.70;;;;;;4842611;29;20513;-79
2021/10/26 10:25:24;;;;;;;11.18;7.85;;;15.60;73.70;;;;;;4811695;29;20033;-81
2021/10/26 10:27:53;;;;;;;10.35;7.80;;;15.70;73.70;;;;;;4811695;29;20026;-81
2021/10/26 10:30:19;;;;;;;10.95;7.93;;;15.70;73.70;;;;;;4825548;29;20095;-82
2021/10/26 10:32:45;;;;;;;10.02;7.18;;;15.70;73.70;;;;;;4825030;29;20038;-81
2021/10/26 10:35:13;;;;;;;8.98;6.57;;;15.70;73.70;;;;;;4841189;29;20054;-80
2021/10/26 10:37:41;;;;;;;8.60;6.53;;;15.70;73.60;;;;;;4807907;29;20034;-79
2021/10/26 10:40:08;;;;;;;9.50;6.93;;;15.80;73.70;;;;;;4837637;29;20057;-78
2021/10/26 10:42:49;;;;;;;9.75;7.00;;;15.80;73.60;;;;;;4826348;29;20058;-78
2021/10/26 10:45:34;;;;;;;9.85;7.45;;;15.80;73.70;;;;;;4826055;29;20104;-79
2021/10/26 10:48:23;;;;;;;;;;;15.80;73.60;;;;;;4842660;29;20034;-81
2021/10/26 10:51:11;;;;;;;8.60;6.03;;;15.80;73.40;;;;;;4834185;29;19923;-81
2021/10/26 10:53:38;;;;;;;8.38;6.22;;;15.80;73.50;;;;;;4826325;29;20049;-81
2021/10/26 10:56:21;;;;;;;7.15;5.30;;;15.80;73.40;;;;;;4825365;29;20037;-80
2021/10/26 10:58:49;;;;;;;8.90;6.57;;;15.80;73.60;;;;;;4825609;29;20458;-80
2021/10/26 11:01:23;;;;;;;8.68;6.53;;;15.90;73.50;;;;;;4841548;29;20026;-80
2021/10/26 11:03:50;;;;;;;8.00;5.72;;;15.90;73.60;;;;;;4825737;29;20101;-81
2021/10/26 11:06:41;;;;;;;8.23;6.13;;;16.00;73.60;;;;;;4825747;29;20073;-80
2021/10/26 11:09:28;;;;;;;7.68;5.50;;;15.90;73.60;;;;;;4824832;29;20501;-81
2021/10/26 11:12:31;;;;;;;8.57;5.70;;;16.00;73.60;;;;;;4841820;29;20045;-80
2021/10/26 11:15:02;;;;;;;7.75;5.57;;;16.00;73.60;;;;;;4825298;29;20090;-82
2021/10/26 11:17:34;;;;;;;8.45;6.38;;;16.00;73.40;;;;;;4826104;29;20618;-82
2021/10/26 11:20:09;;;;;;;8.10;5.75;;;16.00;73.50;;;;;;4825047;29;20034;-79
2021/10/26 11:22:53;;;;;;;7.60;5.63;;;16.00;73.50;;;;;;4817900;29;20029;-80
2021/10/26 11:25:35;;;;;;;7.57;5.78;;;16.10;73.50;;;;;;4825468;29;20050;-82
2021/10/26 11:28:25;;;;;;;7.13;5.35;;;16.10;73.40;;;;;;4802396;29;20396;-80
2021/10/26 11:30:59;;;;;;;9.45;6.00;;;16.10;73.50;;;;;;4836757;29;20045;-82
2021/10/26 11:33:28;;;;;;;7.97;5.72;;;16.10;73.40;;;;;;4838487;29;20106;-82
2021/10/26 11:36:05;;;;;;;7.18;5.50;;;16.10;73.40;;;;;;4812066;29;20045;-82
2021/10/26 11:38:44;;;;;;;7.70;5.53;;;16.10;73.40;;;;;;4841777;29;20041;-81
2021/10/26 11:41:13;;;;;;;6.97;5.00;;;16.10;73.40;;;;;;4840336;29;20059;-81
2021/10/26 11:43:45;;;;;;;7.78;5.38;;;16.10;73.30;;;;;;4824612;29;20089;-84
2021/10/26 11:46:14;;;;;;;8.75;6.03;;;16.20;73.30;;;;;;4841310;29;20030;-83
2021/10/26 11:48:48;;;;;;;7.57;5.38;;;16.20;73.30;;;;;;4842402;29;20033;-84
2021/10/26 11:51:17;;;;;;;7.20;5.43;;;16.20;73.30;;;;;;4841429;29;20098;-82
2021/10/26 11:53:43;;;;;;;7.10;5.32;;;16.20;73.30;;;;;;4800493;29;20459;-83
2021/10/26 11:56:32;;;;;;;7.60;5.80;;;16.30;73.30;;;;;;4810365;29;20076;-83
2021/10/26 11:59:21;;;;;;;6.93;5.45;;;16.30;73.40;;;;;;4833616;29;20075;-81
2021/10/26 12:02:14;;;;;;;7.30;5.13;;;16.30;73.40;;;;;;4824880;29;20099;-82
2021/10/26 12:04:52;;;;;;;7.13;5.25;;;16.30;73.20;;;;;;4841475;29;20026;-82
2021/10/26 12:07:20;;;;;;;7.28;5.45;;;16.30;73.20;;;;;;4841294;29;20037;-81
2021/10/26 12:09:50;;;;;;;8.32;6.03;;;16.30;73.30;;;;;;4825193;29;20022;-83
2021/10/26 12:12:28;;;;;;;8.15;5.75;;;16.40;73.40;;;;;;4824290;29;20045;-83
2021/10/26 12:14:59;;;;;;;7.90;5.07;;;16.40;73.30;;;;;;4825256;29;20456;-81
2021/10/26 12:17:33;;;;;;;7.65;5.28;;;16.40;73.30;;;;;;4810200;29;20038;-83
2021/10/26 12:20:23;;;;;;;7.20;5.20;;;16.40;73.30;;;;;;4841336;29;20479;-83
2021/10/26 12:23:00;;;;;;;6.93;4.93;;;16.40;73.30;;;;;;4810741;29;20045;-82
2021/10/26 12:25:30;;;;;;;7.35;5.57;;;16.50;73.20;;;;;;4824866;29;20582;-83
2021/10/26 12:27:58;;;;;;;6.75;4.85;;;16.50;73.20;;;;;;4825033;29;20030;-83
2021/10/26 12:30:25;;;;;;;6.93;5.05;;;16.50;73.20;;;;;;4841091;29;20044;-82
2021/10/26 12:32:53;;;;;;;8.27;5.45;;;16.50;73.10;;;;;;4841131;29;20058;-83
2021/10/26 12:35:19;;;;;;;7.07;4.80;;;16.50;73.10;;;;;;4840379;29;20053;-82
2021/10/26 12:37:45;;;;;;;6.88;4.93;;;16.60;73.10;;;;;;4809591;29;20049;-83
2021/10/26 12:40:20;;;;;;;8.60;5.38;;;16.60;73.10;;;;;;4824679;29;20022;-82
2021/10/26 12:42:50;;;;;;;6.95;4.95;;;16.70;73.20;;;;;;4818243;29;20033;-82
2021/10/26 12:45:18;;;;;;;7.03;4.60;;;16.60;73.10;;;;;;4817758;29;20137;-83
2021/10/26 12:47:56;;;;;;;6.43;4.55;;;16.70;73.10;;;;;;4824495;29;20037;-81
2021/10/26 12:50:26;;;;;;;7.07;4.68;;;16.70;73.20;;;;;;4817350;29;20083;-83
2021/10/26 12:53:19;;;;;;;6.55;4.32;;;16.70;73.00;;;;;;4826339;29;20026;-82
2021/10/26 12:55:49;;;;;;;7.38;4.97;;;16.70;73.10;;;;;;4825248;29;20037;-82
2021/10/26 12:58:34;;;;;;;6.07;4.07;;;16.70;72.90;;;;;;4816794;29;20029;-82
2021/10/26 13:01:01;;;;;;;6.72;4.50;;;16.80;73.10;;;;;;4832561;29;20034;-82
2021/10/26 13:03:28;;;;;;;6.18;4.13;;;16.80;72.90;;;;;;4818375;29;20029;-83
2021/10/26 13:05:55;;;;;;;5.95;4.18;;;16.80;72.90;;;;;;4822148;29;20034;-83
2021/10/26 13:08:22;;;;;;;6.53;4.30;;;16.80;73.00;;;;;;4824950;29;20522;-83
2021/10/26 13:10:51;;;;;;;6.80;4.43;;;16.90;73.00;;;;;;4840542;29;20038;-83